^^
Grace C. Lehan Memorial Weather Station Historical Data
Daily Summary for May 28, 2021 Units:  Both    English   Metric
Daily Weekly Monthly Yearly
  High: Low: Average:
Temperature: 33.5 °F /  0.8 °C 16.9 °F /  -8.4 °C 27 °F /  -2.8 °C
Dew Point: 25.9 °F /  -3.4 °C 5.4 °F /  -14.8 °C 18.4 °F /  -7.6 °C
Humidity: 85% 56% 70%
Wind Speed: 14mph /  22.5km/h - 4.9mph /  7.9km/h
Wind Gust: 26mph /  41.8km/h - -
Wind- - NW
Pressure: 30.09 in /  1018.8 hPa 29.96 in /  1014.4 hPa -
Precipitation: 0.00 in /  0 mm    
 
 
Tabular Data for May 28, 2021
Time Temperature Dew Point Pressure Wind Wind Speed Wind Gust Humidity Rainfall Rate (Hourly) solar
00:04 30.8 °F /  -0.7 °C 25.9 °F /  -3.4 °C 30.05in /  1017.5hPa NNW 0.7mph /  1.1km/h 10mph /  16.1km/h 82% 0.00in /  0mm 0 W/m2
00:09 30.8 °F /  -0.7 °C 25.9 °F /  -3.4 °C 30.05in /  1017.5hPa NNW 2mph /  3.2km/h 7mph /  11.3km/h 82% 0.00in /  0mm 0 W/m2
00:14 30.7 °F /  -0.7 °C 25.9 °F /  -3.4 °C 30.05in /  1017.5hPa NW 1.1mph /  1.8km/h 7mph /  11.3km/h 82% 0.00in /  0mm 0 W/m2
00:19 30.7 °F /  -0.7 °C 25.9 °F /  -3.4 °C 30.05in /  1017.5hPa NW 2.2mph /  3.5km/h 8mph /  12.9km/h 82% 0.00in /  0mm 0 W/m2
00:24 30.7 °F /  -0.7 °C 25.8 °F /  -3.4 °C 30.05in /  1017.5hPa NNW 2.1mph /  3.4km/h 8mph /  12.9km/h 81.7% 0.00in /  0mm 0 W/m2
00:29 30.7 °F /  -0.7 °C 25.8 °F /  -3.4 °C 30.05in /  1017.5hPa NW 1.8mph /  2.9km/h 8mph /  12.9km/h 81.9% 0.00in /  0mm 0 W/m2
00:34 30.7 °F /  -0.7 °C 25.7 °F /  -3.5 °C 30.04in /  1017.2hPa NW 2.7mph /  4.3km/h 9mph /  14.5km/h 81.4% 0.00in /  0mm 0 W/m2
00:39 30.7 °F /  -0.7 °C 25.6 °F /  -3.6 °C 30.04in /  1017.2hPa NW 1.8mph /  2.9km/h 9mph /  14.5km/h 81.3% 0.00in /  0mm 0 W/m2
00:44 30.6 °F /  -0.8 °C 25.8 °F /  -3.4 °C 30.04in /  1017.2hPa NW 1.3mph /  2.1km/h 9mph /  14.5km/h 82% 0.00in /  0mm 0 W/m2
00:49 30.6 °F /  -0.8 °C 25.7 °F /  -3.5 °C 30.04in /  1017.2hPa NNW 1.8mph /  2.9km/h 9mph /  14.5km/h 81.7% 0.00in /  0mm 0 W/m2
00:54 30.6 °F /  -0.8 °C 25.5 °F /  -3.6 °C 30.04in /  1017.2hPa NNW 0.4mph /  0.6km/h 9mph /  14.5km/h 81% 0.00in /  0mm 0 W/m2
00:59 30.6 °F /  -0.8 °C 25.5 °F /  -3.6 °C 30.04in /  1017.2hPa Calm   9mph /  14.5km/h 81.2% 0.00in /  0mm 0 W/m2
01:04 30.6 °F /  -0.8 °C 25.8 °F /  -3.4 °C 30.04in /  1017.2hPa NNW 1.5mph /  2.4km/h 9mph /  14.5km/h 82% 0.00in /  0mm 0 W/m2
01:09 30.6 °F /  -0.8 °C 25.8 °F /  -3.4 °C 30.04in /  1017.2hPa NNW 0.4mph /  0.6km/h 5mph /  8km/h 82% 0.00in /  0mm 0 W/m2
01:14 30.6 °F /  -0.8 °C 25.7 °F /  -3.5 °C 30.04in /  1017.2hPa North 1.9mph /  3.1km/h 5mph /  8km/h 81.8% 0.00in /  0mm 0 W/m2
01:19 30.5 °F /  -0.8 °C 25.4 °F /  -3.7 °C 30.03in /  1016.8hPa North 0.1mph /  0.2km/h 5mph /  8km/h 81% 0.00in /  0mm 0 W/m2
01:24 30.5 °F /  -0.8 °C 25.4 °F /  -3.7 °C 30.04in /  1017.2hPa North 0.4mph /  0.6km/h 5mph /  8km/h 81% 0.00in /  0mm 0 W/m2
01:29 30.5 °F /  -0.8 °C 25.4 °F /  -3.7 °C 30.03in /  1016.8hPa Calm   5mph /  8km/h 81% 0.00in /  0mm 0 W/m2
01:34 30.5 °F /  -0.8 °C 25.5 °F /  -3.6 °C 30.03in /  1016.8hPa North 0.5mph /  0.8km/h 5mph /  8km/h 81.5% 0.00in /  0mm 0 W/m2
01:39 30.5 °F /  -0.8 °C 25.7 °F /  -3.5 °C 30.03in /  1016.8hPa Calm   3mph /  4.8km/h 82% 0.00in /  0mm 0 W/m2
01:44 30.4 °F /  -0.9 °C 25.6 °F /  -3.6 °C 30.03in /  1016.8hPa North 0.3mph /  0.5km/h 3mph /  4.8km/h 82% 0.00in /  0mm 0 W/m2
01:49 30.4 °F /  -0.9 °C 25.6 °F /  -3.6 °C 30.04in /  1017.2hPa Calm   3mph /  4.8km/h 82% 0.00in /  0mm 0 W/m2
01:54 30.4 °F /  -0.9 °C 25.5 °F /  -3.6 °C 30.03in /  1016.8hPa Calm   3mph /  4.8km/h 82% 0.00in /  0mm 0 W/m2
01:59 30.3 °F /  -0.9 °C 25.5 °F /  -3.6 °C 30.03in /  1016.8hPa Calm   3mph /  4.8km/h 82% 0.00in /  0mm 0 W/m2
02:04 30.3 °F /  -0.9 °C 25.5 °F /  -3.6 °C 30.03in /  1016.8hPa Calm   3mph /  4.8km/h 82% 0.00in /  0mm 0 W/m2
02:09 30.3 °F /  -0.9 °C 25.5 °F /  -3.6 °C 30.03in /  1016.8hPa Calm     82% 0.00in /  0mm 0 W/m2
02:14 30.3 °F /  -0.9 °C 25.5 °F /  -3.6 °C 30.03in /  1016.8hPa Calm     82% 0.00in /  0mm 0 W/m2
02:19 30.3 °F /  -0.9 °C 25.5 °F /  -3.6 °C 30.03in /  1016.8hPa North 0.1mph /  0.2km/h 2mph /  3.2km/h 82% 0.00in /  0mm 0 W/m2
02:24 30.3 °F /  -0.9 °C 25.5 °F /  -3.6 °C 30.02in /  1016.5hPa North 0.3mph /  0.5km/h 3mph /  4.8km/h 82% 0.00in /  0mm 0 W/m2
02:29 30.2 °F /  -1 °C 25.4 °F /  -3.7 °C 30.03in /  1016.8hPa North 0.2mph /  0.3km/h 3mph /  4.8km/h 82% 0.00in /  0mm 0 W/m2
02:34 30.2 °F /  -1 °C 25.4 °F /  -3.7 °C 30.03in /  1016.8hPa Calm   3mph /  4.8km/h 82% 0.00in /  0mm 0 W/m2
02:39 30.1 °F /  -1.1 °C 25.3 °F /  -3.7 °C 30.02in /  1016.5hPa North 0.1mph /  0.2km/h 2mph /  3.2km/h 82% 0.00in /  0mm 0 W/m2
02:44 30 °F /  -1.1 °C 25.2 °F /  -3.8 °C 30.02in /  1016.5hPa North 0.1mph /  0.2km/h 2mph /  3.2km/h 82% 0.00in /  0mm 0 W/m2
02:49 29.9 °F /  -1.2 °C 25.1 °F /  -3.8 °C 30.02in /  1016.5hPa North 0.4mph /  0.6km/h 2mph /  3.2km/h 82% 0.00in /  0mm 0 W/m2
02:54 29.8 °F /  -1.2 °C 25 °F /  -3.9 °C 30.02in /  1016.5hPa Calm   2mph /  3.2km/h 82% 0.00in /  0mm 0 W/m2
02:59 29.7 °F /  -1.3 °C 24.9 °F /  -3.9 °C 30.01in /  1016.1hPa Calm   2mph /  3.2km/h 82% 0.00in /  0mm 0 W/m2
03:04 29.6 °F /  -1.3 °C 24.7 °F /  -4.1 °C 30.01in /  1016.1hPa Calm   2mph /  3.2km/h 82% 0.00in /  0mm 0 W/m2
03:09 29.4 °F /  -1.4 °C 24.6 °F /  -4.1 °C 30.01in /  1016.1hPa Calm     82% 0.00in /  0mm 0 W/m2
03:14 29.2 °F /  -1.6 °C 24.4 °F /  -4.2 °C 30.00in /  1015.8hPa North 0.1mph /  0.2km/h 2mph /  3.2km/h 82% 0.00in /  0mm 0 W/m2
03:19 29 °F /  -1.7 °C 24.4 °F /  -4.2 °C 30.01in /  1016.1hPa Calm   2mph /  3.2km/h 82.5% 0.00in /  0mm 0 W/m2
03:24 28.9 °F /  -1.7 °C 24.4 °F /  -4.2 °C 30.01in /  1016.1hPa North 0.1mph /  0.2km/h 2mph /  3.2km/h 83% 0.00in /  0mm 0 W/m2
03:29 28.7 °F /  -1.8 °C 24.2 °F /  -4.3 °C 30.01in /  1016.1hPa Calm   2mph /  3.2km/h 83% 0.00in /  0mm 0 W/m2
03:34 28.5 °F /  -1.9 °C 24 °F /  -4.4 °C 30.01in /  1016.1hPa Calm   2mph /  3.2km/h 83% 0.00in /  0mm 0 W/m2
03:39 28.4 °F /  -2 °C 23.9 °F /  -4.5 °C 30.01in /  1016.1hPa Calm     83% 0.00in /  0mm 0 W/m2
03:44 28.3 °F /  -2.1 °C 23.8 °F /  -4.6 °C 30.02in /  1016.5hPa Calm     83% 0.00in /  0mm 0 W/m2
03:49 28.1 °F /  -2.2 °C 23.9 °F /  -4.5 °C 30.02in /  1016.5hPa Calm     84% 0.00in /  0mm 0 W/m2
03:54 27.9 °F /  -2.3 °C 23.7 °F /  -4.6 °C 30.01in /  1016.1hPa North 0.2mph /  0.3km/h 2mph /  3.2km/h 84% 0.00in /  0mm 0 W/m2
03:59 27.8 °F /  -2.3 °C 23.6 °F /  -4.7 °C 30.01in /  1016.1hPa Calm   2mph /  3.2km/h 84% 0.00in /  0mm 0 W/m2
04:04 27.7 °F /  -2.4 °C 23.7 °F /  -4.6 °C 30.01in /  1016.1hPa Calm   2mph /  3.2km/h 84.7% 0.00in /  0mm 0 W/m2
04:09 27.6 °F /  -2.4 °C 23.7 °F /  -4.6 °C 30.01in /  1016.1hPa North 0.1mph /  0.2km/h 3mph /  4.8km/h 85% 0.00in /  0mm 0 W/m2
04:14 27.5 °F /  -2.5 °C 23.6 °F /  -4.7 °C 30.01in /  1016.1hPa North 0.9mph /  1.4km/h 4mph /  6.4km/h 85% 0.00in /  0mm 0 W/m2
04:19 27.5 °F /  -2.5 °C 23.6 °F /  -4.7 °C 30.00in /  1015.8hPa North 1mph /  1.6km/h 4mph /  6.4km/h 85% 0.00in /  0mm 0 W/m2
04:24 27.5 °F /  -2.5 °C 23.6 °F /  -4.7 °C 30.00in /  1015.8hPa NNW 1.1mph /  1.8km/h 6mph /  9.7km/h 85% 0.00in /  0mm 0 W/m2
04:29 27.5 °F /  -2.5 °C 23.6 °F /  -4.7 °C 30.00in /  1015.8hPa NNW 0.7mph /  1.1km/h 6mph /  9.7km/h 85% 0.00in /  0mm 0 W/m2
04:34 27.5 °F /  -2.5 °C 23.6 °F /  -4.7 °C 30.00in /  1015.8hPa NNW 1.2mph /  1.9km/h 9mph /  14.5km/h 85% 0.00in /  0mm 0 W/m2
04:39 27.5 °F /  -2.5 °C 23.6 °F /  -4.7 °C 29.99in /  1015.5hPa NW 2mph /  3.2km/h 9mph /  14.5km/h 85% 0.00in /  0mm 0 W/m2
04:44 27.6 °F /  -2.4 °C 23.7 °F /  -4.6 °C 29.99in /  1015.5hPa NNW 2.7mph /  4.3km/h 11mph /  17.7km/h 85% 0.00in /  0mm 0 W/m2
04:49 27.7 °F /  -2.4 °C 23.7 °F /  -4.6 °C 29.99in /  1015.5hPa NNW 2.3mph /  3.7km/h 11mph /  17.7km/h 84.5% 0.00in /  0mm 0 W/m2
04:54 27.8 °F /  -2.3 °C 23.6 °F /  -4.7 °C 29.99in /  1015.5hPa NNW 1.2mph /  1.9km/h 11mph /  17.7km/h 84% 0.00in /  0mm 0 W/m2
04:59 27.9 °F /  -2.3 °C 23.7 °F /  -4.6 °C 29.99in /  1015.5hPa NNW 3.4mph /  5.5km/h 11mph /  17.7km/h 84% 0.00in /  0mm 0 W/m2
05:04 27.9 °F /  -2.3 °C 23.7 °F /  -4.6 °C 29.98in /  1015.1hPa North 1.5mph /  2.4km/h 11mph /  17.7km/h 84% 0.00in /  0mm 0 W/m2
05:09 27.9 °F /  -2.3 °C 23.7 °F /  -4.6 °C 29.99in /  1015.5hPa NNW 1.5mph /  2.4km/h 7mph /  11.3km/h 84% 0.00in /  0mm 0 W/m2
05:14 27.9 °F /  -2.3 °C 23.7 °F /  -4.6 °C 29.99in /  1015.5hPa NNW 1.8mph /  2.9km/h 7mph /  11.3km/h 84% 0.00in /  0mm 0 W/m2
05:19 27.9 °F /  -2.3 °C 23.7 °F /  -4.6 °C 29.99in /  1015.5hPa North 1.3mph /  2.1km/h 7mph /  11.3km/h 84% 0.00in /  0mm 0 W/m2
05:24 27.9 °F /  -2.3 °C 23.7 °F /  -4.6 °C 29.99in /  1015.5hPa NNW 1.7mph /  2.7km/h 7mph /  11.3km/h 84% 0.00in /  0mm 0 W/m2
05:29 27.9 °F /  -2.3 °C 23.5 °F /  -4.7 °C 30.00in /  1015.8hPa NNW 1.9mph /  3.1km/h 7mph /  11.3km/h 83.3% 0.00in /  0mm 0 W/m2
05:34 27.9 °F /  -2.3 °C 23.4 °F /  -4.8 °C 30.01in /  1016.1hPa NW 1.3mph /  2.1km/h 7mph /  11.3km/h 83% 0.00in /  0mm 0 W/m2
05:39 27.9 °F /  -2.3 °C 23.4 °F /  -4.8 °C 30.01in /  1016.1hPa NW 1.4mph /  2.3km/h 6mph /  9.7km/h 83% 0.00in /  0mm 0 W/m2
05:44 28 °F /  -2.2 °C 23.5 °F /  -4.7 °C 30.01in /  1016.1hPa NW 1.6mph /  2.6km/h 6mph /  9.7km/h 83% 0.00in /  0mm 0 W/m2
05:49 28 °F /  -2.2 °C 23.5 °F /  -4.7 °C 30.01in /  1016.1hPa NNW 0.8mph /  1.3km/h 6mph /  9.7km/h 83% 0.00in /  0mm 0 W/m2
05:54 28 °F /  -2.2 °C 23.5 °F /  -4.7 °C 30.01in /  1016.1hPa NNW 1.1mph /  1.8km/h 6mph /  9.7km/h 83% 0.00in /  0mm 0 W/m2
05:59 28 °F /  -2.2 °C 23.6 °F /  -4.7 °C 30.01in /  1016.1hPa NW 1.5mph /  2.4km/h 7mph /  11.3km/h 83.3% 0.00in /  0mm 0 W/m2
06:04 28 °F /  -2.2 °C 23.5 °F /  -4.7 °C 30.01in /  1016.1hPa NNW 1.8mph /  2.9km/h 7mph /  11.3km/h 83% 0.00in /  0mm 0 W/m2
06:09 28.1 °F /  -2.2 °C 23.6 °F /  -4.7 °C 30.02in /  1016.5hPa NNW 1.9mph /  3.1km/h 9mph /  14.5km/h 83% 0.00in /  0mm 0 W/m2
06:14 28.1 °F /  -2.2 °C 23.6 °F /  -4.7 °C 30.01in /  1016.1hPa NW 1.4mph /  2.3km/h 9mph /  14.5km/h 83% 0.00in /  0mm 0 W/m2
06:19 28.2 °F /  -2.1 °C 23.7 °F /  -4.6 °C 30.01in /  1016.1hPa NNW 1.8mph /  2.9km/h 9mph /  14.5km/h 83% 0.00in /  0mm 0 W/m2
06:24 28.2 °F /  -2.1 °C 23.7 °F /  -4.6 °C 30.01in /  1016.1hPa NNW 1.4mph /  2.3km/h 9mph /  14.5km/h 83% 0.00in /  0mm 0 W/m2
06:29 28.3 °F /  -2.1 °C 23.8 °F /  -4.6 °C 30.01in /  1016.1hPa NNW 0.6mph /  1km/h 9mph /  14.5km/h 83% 0.00in /  0mm 0 W/m2
06:34 28.3 °F /  -2.1 °C 23.8 °F /  -4.6 °C 30.01in /  1016.1hPa NNW 1.4mph /  2.3km/h 9mph /  14.5km/h 83% 0.00in /  0mm 0 W/m2
06:39 28.3 °F /  -2.1 °C 23.6 °F /  -4.7 °C 30.01in /  1016.1hPa NW 3.4mph /  5.5km/h 10mph /  16.1km/h 82% 0.00in /  0mm 0 W/m2
06:44 28.4 °F /  -2 °C 23.6 °F /  -4.7 °C 30.01in /  1016.1hPa NW 2.8mph /  4.5km/h 10mph /  16.1km/h 82% 0.00in /  0mm 0 W/m2
06:49 28.4 °F /  -2 °C 23.7 °F /  -4.6 °C 30.01in /  1016.1hPa NW 3.5mph /  5.6km/h 10mph /  16.1km/h 82% 0.00in /  0mm 0 W/m2
06:54 28.5 °F /  -1.9 °C 23.6 °F /  -4.7 °C 30.01in /  1016.1hPa NW 3.2mph /  5.1km/h 10mph /  16.1km/h 81.7% 0.00in /  0mm 0 W/m2
06:59 28.5 °F /  -1.9 °C 23.4 °F /  -4.8 °C 30.01in /  1016.1hPa NNW 2.9mph /  4.7km/h 10mph /  16.1km/h 81% 0.00in /  0mm 0 W/m2
07:04 28.5 °F /  -1.9 °C 23.5 °F /  -4.7 °C 30.00in /  1015.8hPa NNW 1.7mph /  2.7km/h 10mph /  16.1km/h 81% 0.00in /  0mm 0 W/m2
07:09 28.6 °F /  -1.9 °C 23.5 °F /  -4.7 °C 30.00in /  1015.8hPa NW 1.2mph /  1.9km/h 10mph /  16.1km/h 81% 0.00in /  0mm 0 W/m2
07:14 28.6 °F /  -1.9 °C 23.5 °F /  -4.7 °C 30.01in /  1016.1hPa NNW 1.4mph /  2.3km/h 10mph /  16.1km/h 81% 0.00in /  0mm 0 W/m2
07:19 28.6 °F /  -1.9 °C 23.5 °F /  -4.7 °C 30.01in /  1016.1hPa North 1mph /  1.6km/h 10mph /  16.1km/h 81% 0.00in /  0mm 5 W/m2
07:24 28.6 °F /  -1.9 °C 23.5 °F /  -4.7 °C 30.00in /  1015.8hPa NW 1.9mph /  3.1km/h 10mph /  16.1km/h 81% 0.00in /  0mm 5 W/m2
07:29 28.7 °F /  -1.8 °C 23.6 °F /  -4.7 °C 30.01in /  1016.1hPa NNW 0.6mph /  1km/h 10mph /  16.1km/h 81% 0.00in /  0mm 7 W/m2
07:34 28.7 °F /  -1.8 °C 23.6 °F /  -4.7 °C 30.01in /  1016.1hPa NW 1.5mph /  2.4km/h 10mph /  16.1km/h 81% 0.00in /  0mm 9 W/m2
07:39 28.7 °F /  -1.8 °C 23.6 °F /  -4.7 °C 30.01in /  1016.1hPa NW 0.8mph /  1.3km/h 9mph /  14.5km/h 81% 0.00in /  0mm 9 W/m2
07:44 28.7 °F /  -1.8 °C 23.6 °F /  -4.7 °C 30.01in /  1016.1hPa NW 1.7mph /  2.7km/h 9mph /  14.5km/h 81% 0.00in /  0mm 11 W/m2
07:49 28.7 °F /  -1.8 °C 23.4 °F /  -4.8 °C 30.02in /  1016.5hPa NW 1mph /  1.6km/h 9mph /  14.5km/h 80.4% 0.00in /  0mm 12 W/m2
07:54 28.7 °F /  -1.8 °C 23.3 °F /  -4.8 °C 30.02in /  1016.5hPa NNW 1.8mph /  2.9km/h 9mph /  14.5km/h 80% 0.00in /  0mm 18 W/m2
07:59 28.8 °F /  -1.8 °C 23.4 °F /  -4.8 °C 30.02in /  1016.5hPa NW 1.5mph /  2.4km/h 9mph /  14.5km/h 80% 0.00in /  0mm 19 W/m2
08:00 28.8 °F /  -1.8 °C 23.4 °F /  -4.8 °C 30.01in /  1016.1hPa Calm   9mph /  14.5km/h 80% 0.00in /  0mm 19 W/m2
08:09 28.8 °F /  -1.8 °C 23.4 °F /  -4.8 °C 30.02in /  1016.5hPa NW 4.8mph /  7.7km/h 12mph /  19.3km/h 79.9% 0.00in /  0mm 26 W/m2
08:14 28.9 °F /  -1.7 °C 23.4 °F /  -4.8 °C 30.01in /  1016.1hPa NNW 3.2mph /  5.1km/h 12mph /  19.3km/h 79.8% 0.00in /  0mm 28 W/m2
08:19 28.9 °F /  -1.7 °C 23.4 °F /  -4.8 °C 30.01in /  1016.1hPa NNW 3mph /  4.8km/h 12mph /  19.3km/h 79.5% 0.00in /  0mm 35 W/m2
08:24 28.9 °F /  -1.7 °C 23.4 °F /  -4.8 °C 30.01in /  1016.1hPa NW 3.1mph /  5km/h 12mph /  19.3km/h 79.4% 0.00in /  0mm 40 W/m2
08:29 29 °F /  -1.7 °C 23.3 °F /  -4.8 °C 30.02in /  1016.5hPa NW 3.7mph /  6km/h 12mph /  19.3km/h 79% 0.00in /  0mm 40 W/m2
08:34 29 °F /  -1.7 °C 23.3 °F /  -4.8 °C 30.02in /  1016.5hPa NNW 2.6mph /  4.2km/h 12mph /  19.3km/h 79% 0.00in /  0mm 42 W/m2
08:39 29.1 °F /  -1.6 °C 23.4 °F /  -4.8 °C 30.02in /  1016.5hPa NW 5.4mph /  8.7km/h 11mph /  17.7km/h 79% 0.00in /  0mm 47 W/m2
08:44 29.1 °F /  -1.6 °C 23.2 °F /  -4.9 °C 30.01in /  1016.1hPa NW 4.5mph /  7.2km/h 12mph /  19.3km/h 78.4% 0.00in /  0mm 51 W/m2
08:49 29.1 °F /  -1.6 °C 23.1 °F /  -4.9 °C 30.02in /  1016.5hPa NW 4.2mph /  6.8km/h 12mph /  19.3km/h 78% 0.00in /  0mm 54 W/m2
08:54 29.1 °F /  -1.6 °C 23.2 °F /  -4.9 °C 30.02in /  1016.5hPa NW 2.4mph /  3.9km/h 13mph /  20.9km/h 78% 0.00in /  0mm 63 W/m2
08:59 29.2 °F /  -1.6 °C 23.2 °F /  -4.9 °C 30.02in /  1016.5hPa NW 3.3mph /  5.3km/h 14mph /  22.5km/h 78% 0.00in /  0mm 69 W/m2
09:04 29.2 °F /  -1.6 °C 23 °F /  -5 °C 30.02in /  1016.5hPa NW 7mph /  11.3km/h 18mph /  29km/h 77.2% 0.00in /  0mm 77 W/m2
09:09 29.2 °F /  -1.6 °C 22.9 °F /  -5.1 °C 30.02in /  1016.5hPa NW 3.8mph /  6.1km/h 18mph /  29km/h 77% 0.00in /  0mm 84 W/m2
09:14 29.3 °F /  -1.5 °C 22.9 °F /  -5.1 °C 30.03in /  1016.8hPa WNW 5.1mph /  8.2km/h 18mph /  29km/h 76.8% 0.00in /  0mm 90 W/m2
09:19 29.3 °F /  -1.5 °C 22.7 °F /  -5.2 °C 30.02in /  1016.5hPa NW 5.1mph /  8.2km/h 18mph /  29km/h 76% 0.00in /  0mm 91 W/m2
09:24 29.4 °F /  -1.4 °C 22.7 °F /  -5.2 °C 30.02in /  1016.5hPa NW 2.9mph /  4.7km/h 18mph /  29km/h 76% 0.00in /  0mm 98 W/m2
09:29 29.4 °F /  -1.4 °C 22.8 °F /  -5.1 °C 30.03in /  1016.8hPa NW 4.3mph /  6.9km/h 18mph /  29km/h 76% 0.00in /  0mm 105 W/m2
09:34 29.5 °F /  -1.4 °C 22.7 °F /  -5.2 °C 30.03in /  1016.8hPa NW 6mph /  9.7km/h 18mph /  29km/h 75.3% 0.00in /  0mm 118 W/m2
09:39 29.5 °F /  -1.4 °C 22.6 °F /  -5.2 °C 30.03in /  1016.8hPa NW 4.5mph /  7.2km/h 14mph /  22.5km/h 75% 0.00in /  0mm 127 W/m2
09:44 29.6 °F /  -1.3 °C 22.7 °F /  -5.2 °C 30.03in /  1016.8hPa NW 2.7mph /  4.3km/h 14mph /  22.5km/h 75% 0.00in /  0mm 130 W/m2
09:49 29.8 °F /  -1.2 °C 22.8 °F /  -5.1 °C 30.03in /  1016.8hPa NNW 4.9mph /  7.9km/h 15mph /  24.1km/h 75% 0.00in /  0mm 134 W/m2
09:54 29.9 °F /  -1.2 °C 22.7 °F /  -5.2 °C 30.03in /  1016.8hPa NW 3.8mph /  6.1km/h 15mph /  24.1km/h 74.1% 0.00in /  0mm 130 W/m2
09:59 30 °F /  -1.1 °C 22.7 °F /  -5.2 °C 30.03in /  1016.8hPa NW 1.9mph /  3.1km/h 15mph /  24.1km/h 74% 0.00in /  0mm 144 W/m2
10:04 30.1 °F /  -1.1 °C 22.8 °F /  -5.1 °C 30.03in /  1016.8hPa WNW 5.2mph /  8.4km/h 15mph /  24.1km/h 74% 0.00in /  0mm 160 W/m2
10:09 30.2 °F /  -1 °C 22.7 °F /  -5.2 °C 30.03in /  1016.8hPa NW 5.4mph /  8.7km/h 12mph /  19.3km/h 73.3% 0.00in /  0mm 165 W/m2
10:14 30.3 °F /  -0.9 °C 22.8 °F /  -5.1 °C 30.03in /  1016.8hPa NW 4.1mph /  6.6km/h 12mph /  19.3km/h 73.5% 0.00in /  0mm 176 W/m2
10:19 30.4 °F /  -0.9 °C 23.1 °F /  -4.9 °C 30.03in /  1016.8hPa WNW 3.3mph /  5.3km/h 12mph /  19.3km/h 73.9% 0.00in /  0mm 178 W/m2
10:24 30.6 °F /  -0.8 °C 23.2 °F /  -4.9 °C 30.03in /  1016.8hPa NW 2.1mph /  3.4km/h 12mph /  19.3km/h 73.6% 0.00in /  0mm 185 W/m2
10:29 30.8 °F /  -0.7 °C 23.2 °F /  -4.9 °C 30.02in /  1016.5hPa NW 5.2mph /  8.4km/h 13mph /  20.9km/h 73.1% 0.00in /  0mm 199 W/m2
10:34 30.9 °F /  -0.6 °C 23.1 °F /  -4.9 °C 30.02in /  1016.5hPa NW 7.3mph /  11.7km/h 17mph /  27.4km/h 72.5% 0.00in /  0mm 211 W/m2
10:39 30.9 °F /  -0.6 °C 22.9 °F /  -5.1 °C 30.02in /  1016.5hPa NW 6.4mph /  10.3km/h 17mph /  27.4km/h 72% 0.00in /  0mm 211 W/m2
10:44 30.9 °F /  -0.6 °C 22.7 °F /  -5.2 °C 30.02in /  1016.5hPa NNW 6.2mph /  10km/h 17mph /  27.4km/h 71.4% 0.00in /  0mm 216 W/m2
10:49 30.8 °F /  -0.7 °C 22.2 °F /  -5.4 °C 30.02in /  1016.5hPa NW 7mph /  11.3km/h 20mph /  32.2km/h 70% 0.00in /  0mm 216 W/m2
10:54 30.8 °F /  -0.7 °C 22.1 °F /  -5.5 °C 30.02in /  1016.5hPa NW 9.2mph /  14.8km/h 20mph /  32.2km/h 69.7% 0.00in /  0mm 221 W/m2
10:59 30.7 °F /  -0.7 °C 21.8 °F /  -5.7 °C 30.02in /  1016.5hPa NW 6mph /  9.7km/h 20mph /  32.2km/h 69.1% 0.00in /  0mm 220 W/m2
11:04 30.7 °F /  -0.7 °C 21.9 °F /  -5.6 °C 30.01in /  1016.1hPa NNW 3.8mph /  6.1km/h 20mph /  32.2km/h 69.5% 0.00in /  0mm 220 W/m2
11:09 30.9 °F /  -0.6 °C 22.1 °F /  -5.5 °C 30.01in /  1016.1hPa NNW 7.1mph /  11.4km/h 13mph /  20.9km/h 69.5% 0.00in /  0mm 260 W/m2
11:14 31 °F /  -0.6 °C 22 °F /  -5.6 °C 30.01in /  1016.1hPa NW 6.8mph /  10.9km/h 13mph /  20.9km/h 69% 0.00in /  0mm 250 W/m2
11:17 31.1 °F /  -0.5 °C 22.1 °F /  -5.5 °C 30.01in /  1016.1hPa NW 7mph /  11.3km/h 13mph /  20.9km/h 69% 0.00in /  0mm 251 W/m2
11:30 31.5 °F /  -0.3 °C 22.2 °F /  -5.4 °C 30.00in /  1015.8hPa NW 6mph /  9.7km/h 15mph /  24.1km/h 68% 0.00in /  0mm 240 W/m2
12:04 32.2 °F /  0.1 °C 22.4 °F /  -5.3 °C 30.00in /  1015.8hPa NW 8mph /  12.9km/h 15mph /  24.1km/h 66.7% 0.00in /  0mm 240 W/m2
12:09 32.3 °F /  0.2 °C 21.9 °F /  -5.6 °C 30.00in /  1015.8hPa NNW 9.7mph /  15.6km/h 20mph /  32.2km/h 65.2% 0.00in /  0mm 209 W/m2
12:14 31.9 °F /  -0.1 °C 21.1 °F /  -6.1 °C 29.99in /  1015.5hPa NW 10.1mph /  16.3km/h 20mph /  32.2km/h 64% 0.00in /  0mm 202 W/m2
12:19 31.6 °F /  -0.2 °C 21.1 °F /  -6.1 °C 29.99in /  1015.5hPa NW 8.9mph /  14.3km/h 20mph /  32.2km/h 64.7% 0.00in /  0mm 199 W/m2
12:24 31.5 °F /  -0.3 °C 21.1 °F /  -6.1 °C 29.99in /  1015.5hPa NW 6.4mph /  10.3km/h 20mph /  32.2km/h 64.9% 0.00in /  0mm 211 W/m2
12:29 31.6 °F /  -0.2 °C 21.5 °F /  -5.8 °C 29.98in /  1015.1hPa NNW 6.1mph /  9.8km/h 20mph /  32.2km/h 65.7% 0.00in /  0mm 262 W/m2
12:34 32 °F /  0 °C 22 °F /  -5.6 °C 29.98in /  1015.1hPa NW 5.2mph /  8.4km/h 20mph /  32.2km/h 66% 0.00in /  0mm 253 W/m2
12:39 32.5 °F /  0.3 °C 22.1 °F /  -5.5 °C 29.98in /  1015.1hPa NW 7.2mph /  11.6km/h 18mph /  29km/h 65.2% 0.00in /  0mm 167 W/m2
12:44 32.8 °F /  0.4 °C 21.9 °F /  -5.6 °C 29.98in /  1015.1hPa NW 7.7mph /  12.4km/h 18mph /  29km/h 64% 0.00in /  0mm 288 W/m2
12:49 33 °F /  0.6 °C 22.1 °F /  -5.5 °C 29.98in /  1015.1hPa NW 5.9mph /  9.5km/h 18mph /  29km/h 64% 0.00in /  0mm 105 W/m2
12:54 33.2 °F /  0.7 °C 22.5 °F /  -5.3 °C 29.98in /  1015.1hPa NW 4mph /  6.4km/h 18mph /  29km/h 64.2% 0.00in /  0mm 72 W/m2
12:59 33.5 °F /  0.8 °C 22.6 °F /  -5.2 °C 29.98in /  1015.1hPa NNW 6.3mph /  10.1km/h 18mph /  29km/h 63.9% 0.00in /  0mm 144 W/m2
13:04 33.5 °F /  0.8 °C 22 °F /  -5.6 °C 29.97in /  1014.8hPa NNW 7.8mph /  12.6km/h 16mph /  25.7km/h 62.3% 0.00in /  0mm 125 W/m2
13:09 33.3 °F /  0.7 °C 21.9 °F /  -5.6 °C 29.97in /  1014.8hPa NW 7.3mph /  11.7km/h 18mph /  29km/h 62.5% 0.00in /  0mm 125 W/m2
13:14 33.2 °F /  0.7 °C 21.8 °F /  -5.7 °C 29.97in /  1014.8hPa NW 6.2mph /  10km/h 18mph /  29km/h 62.4% 0.00in /  0mm 308 W/m2
13:19 33.2 °F /  0.7 °C 21.8 °F /  -5.7 °C 29.97in /  1014.8hPa NNW 5.7mph /  9.2km/h 18mph /  29km/h 62.3% 0.00in /  0mm 223 W/m2
13:24 33.3 °F /  0.7 °C 21.7 °F /  -5.7 °C 29.97in /  1014.8hPa NW 7mph /  11.3km/h 18mph /  29km/h 62% 0.00in /  0mm 239 W/m2
13:29 33.3 °F /  0.7 °C 21.3 °F /  -5.9 °C 29.97in /  1014.8hPa NW 9.4mph /  15.1km/h 18mph /  29km/h 61% 0.00in /  0mm 374 W/m2
13:34 33.2 °F /  0.7 °C 21.1 °F /  -6.1 °C 29.97in /  1014.8hPa NW 7.5mph /  12.1km/h 22mph /  35.4km/h 60.7% 0.00in /  0mm 329 W/m2
13:39 33.1 °F /  0.6 °C 21.1 °F /  -6.1 °C 29.97in /  1014.8hPa NW 9.2mph /  14.8km/h 22mph /  35.4km/h 60.9% 0.00in /  0mm 76 W/m2
13:44 33 °F /  0.6 °C 20.9 °F /  -6.2 °C 29.97in /  1014.8hPa NNW 6.3mph /  10.1km/h 22mph /  35.4km/h 60.8% 0.00in /  0mm 501 W/m2
13:49 33 °F /  0.6 °C 20.9 °F /  -6.2 °C 29.97in /  1014.8hPa NNW 7.4mph /  11.9km/h 22mph /  35.4km/h 60.6% 0.00in /  0mm 292 W/m2
13:54 33 °F /  0.6 °C 20.6 °F /  -6.3 °C 29.97in /  1014.8hPa NNW 7.5mph /  12.1km/h 22mph /  35.4km/h 60% 0.00in /  0mm 153 W/m2
13:59 32.8 °F /  0.4 °C 20.5 °F /  -6.4 °C 29.97in /  1014.8hPa NW 5.3mph /  8.5km/h 22mph /  35.4km/h 60% 0.00in /  0mm 153 W/m2
14:04 32.9 °F /  0.5 °C 20.5 °F /  -6.4 °C 29.97in /  1014.8hPa NNW 8.3mph /  13.4km/h 22mph /  35.4km/h 60% 0.00in /  0mm 244 W/m2
14:09 32.8 °F /  0.4 °C 20.2 °F /  -6.6 °C 29.97in /  1014.8hPa NW 7.4mph /  11.9km/h 16mph /  25.7km/h 59.2% 0.00in /  0mm 244 W/m2
14:14 32.7 °F /  0.4 °C 20.1 °F /  -6.6 °C 29.96in /  1014.4hPa NW 8.7mph /  14km/h 16mph /  25.7km/h 59.4% 0.00in /  0mm 167 W/m2
14:19 32.6 °F /  0.3 °C 19.7 °F /  -6.8 °C 29.97in /  1014.8hPa NNW 8.5mph /  13.7km/h 20mph /  32.2km/h 58.7% 0.00in /  0mm 155 W/m2
14:24 32.3 °F /  0.2 °C 19.4 °F /  -7 °C 29.97in /  1014.8hPa NW 7.2mph /  11.6km/h 20mph /  32.2km/h 58.6% 0.00in /  0mm 171 W/m2
14:29 32.2 °F /  0.1 °C 19.3 °F /  -7.1 °C 29.97in /  1014.8hPa NW 7.7mph /  12.4km/h 20mph /  32.2km/h 58.5% 0.00in /  0mm 276 W/m2
14:34 32.1 °F /  0.1 °C 19 °F /  -7.2 °C 29.97in /  1014.8hPa NNW 9mph /  14.5km/h 20mph /  32.2km/h 58% 0.00in /  0mm 276 W/m2
14:39 32 °F /  0 °C 18.9 °F /  -7.3 °C 29.97in /  1014.8hPa NW 6.9mph /  11.1km/h 18mph /  29km/h 58% 0.00in /  0mm 142 W/m2
14:44 31.8 °F /  -0.1 °C 18.7 °F /  -7.4 °C 29.97in /  1014.8hPa NW 9.4mph /  15.1km/h 18mph /  29km/h 58% 0.00in /  0mm 149 W/m2
14:49 31.6 °F /  -0.2 °C 18.3 °F /  -7.6 °C 29.97in /  1014.8hPa NW 10.9mph /  17.5km/h 18mph /  29km/h 57.4% 0.00in /  0mm 107 W/m2
14:54 31.4 °F /  -0.3 °C 18.2 °F /  -7.7 °C 29.97in /  1014.8hPa NW 8.9mph /  14.3km/h 20mph /  32.2km/h 57.6% 0.00in /  0mm 255 W/m2
14:59 31.2 °F /  -0.4 °C 18.1 °F /  -7.7 °C 29.97in /  1014.8hPa NW 6.7mph /  10.8km/h 20mph /  32.2km/h 57.9% 0.00in /  0mm 279 W/m2
15:04 31.1 °F /  -0.5 °C 18 °F /  -7.8 °C 29.97in /  1014.8hPa WNW 7mph /  11.3km/h 20mph /  32.2km/h 58% 0.00in /  0mm 35 W/m2
15:09 31 °F /  -0.6 °C 17.9 °F /  -7.8 °C 29.98in /  1015.1hPa WNW 9.4mph /  15.1km/h 17mph /  27.4km/h 58% 0.00in /  0mm 33 W/m2
15:14 30.8 °F /  -0.7 °C 17.8 °F /  -7.9 °C 29.98in /  1015.1hPa NW 6mph /  9.7km/h 19mph /  30.6km/h 58% 0.00in /  0mm 32 W/m2
15:19 30.7 °F /  -0.7 °C 17.7 °F /  -7.9 °C 29.98in /  1015.1hPa NW 9mph /  14.5km/h 19mph /  30.6km/h 58% 0.00in /  0mm 30 W/m2
15:24 30.6 °F /  -0.8 °C 17.6 °F /  -8 °C 29.98in /  1015.1hPa NW 8.5mph /  13.7km/h 19mph /  30.6km/h 58% 0.00in /  0mm 30 W/m2
15:29 30.5 °F /  -0.8 °C 17.1 °F /  -8.3 °C 29.98in /  1015.1hPa NW 8.5mph /  13.7km/h 19mph /  30.6km/h 56.9% 0.00in /  0mm 28 W/m2
15:34 30.3 °F /  -0.9 °C 16.5 °F /  -8.6 °C 29.99in /  1015.5hPa NNW 10mph /  16.1km/h 24mph /  38.6km/h 56% 0.00in /  0mm 26 W/m2
15:39 30 °F /  -1.1 °C 16.3 °F /  -8.7 °C 29.98in /  1015.1hPa NNW 8.7mph /  14km/h 24mph /  38.6km/h 56.2% 0.00in /  0mm 26 W/m2
15:44 29.8 °F /  -1.2 °C 16.5 °F /  -8.6 °C 29.99in /  1015.5hPa NNW 7.4mph /  11.9km/h 24mph /  38.6km/h 57.2% 0.00in /  0mm 25 W/m2
15:49 29.6 °F /  -1.3 °C 16.2 °F /  -8.8 °C 30.00in /  1015.8hPa NW 9.1mph /  14.6km/h 24mph /  38.6km/h 57% 0.00in /  0mm 25 W/m2
15:54 29.3 °F /  -1.5 °C 16.1 °F /  -8.8 °C 29.99in /  1015.5hPa NW 6.2mph /  10km/h 24mph /  38.6km/h 57.1% 0.00in /  0mm 23 W/m2
15:59 29.2 °F /  -1.6 °C 16.1 °F /  -8.8 °C 30.00in /  1015.8hPa NW 6.7mph /  10.8km/h 24mph /  38.6km/h 57.4% 0.00in /  0mm 21 W/m2
16:04 28.9 °F /  -1.7 °C 15.6 °F /  -9.1 °C 29.99in /  1015.5hPa NW 9mph /  14.5km/h 9mph /  14.5km/h 57% 0.00in /  0mm 19 W/m2
16:09 28.9 °F /  -1.7 °C 15.7 °F /  -9.1 °C 30.00in /  1015.8hPa NW 5.6mph /  9km/h 12mph /  19.3km/h 57.4% 0.00in /  0mm 19 W/m2
16:14 28.7 °F /  -1.8 °C 15.8 °F /  -9 °C 30.00in /  1015.8hPa NW 6.7mph /  10.8km/h 15mph /  24.1km/h 58% 0.00in /  0mm 19 W/m2
16:19 28.5 °F /  -1.9 °C 15.9 °F /  -8.9 °C 30.00in /  1015.8hPa NW 7.6mph /  12.2km/h 18mph /  29km/h 58.5% 0.00in /  0mm 18 W/m2
16:24 28.2 °F /  -2.1 °C 15.2 °F /  -9.3 °C 30.00in /  1015.8hPa NW 8.8mph /  14.2km/h 18mph /  29km/h 57.5% 0.00in /  0mm 16 W/m2
16:29 27.9 °F /  -2.3 °C 14.6 °F /  -9.7 °C 30.00in /  1015.8hPa NW 8.2mph /  13.2km/h 20mph /  32.2km/h 57% 0.00in /  0mm 16 W/m2
16:34 27.6 °F /  -2.4 °C 14.7 °F /  -9.6 °C 30.01in /  1016.1hPa NW 5.1mph /  8.2km/h 20mph /  32.2km/h 57.9% 0.00in /  0mm 14 W/m2
16:39 27.3 °F /  -2.6 °C 14.8 °F /  -9.6 °C 30.01in /  1016.1hPa NW 8.4mph /  13.5km/h 19mph /  30.6km/h 58.6% 0.00in /  0mm 12 W/m2
16:44 27.1 °F /  -2.7 °C 14.6 °F /  -9.7 °C 30.01in /  1016.1hPa NW 8.5mph /  13.7km/h 19mph /  30.6km/h 58.8% 0.00in /  0mm 11 W/m2
16:49 26.9 °F /  -2.8 °C 14.6 °F /  -9.7 °C 30.02in /  1016.5hPa NW 5.6mph /  9km/h 19mph /  30.6km/h 59.4% 0.00in /  0mm 9 W/m2
16:54 26.7 °F /  -2.9 °C 14.3 °F /  -9.8 °C 30.02in /  1016.5hPa NW 6.8mph /  10.9km/h 19mph /  30.6km/h 59.1% 0.00in /  0mm 7 W/m2
16:59 26.4 °F /  -3.1 °C 14 °F /  -10 °C 30.02in /  1016.5hPa NW 9.3mph /  15km/h 21mph /  33.8km/h 59% 0.00in /  0mm 5 W/m2
17:04 26.2 °F /  -3.2 °C 13.8 °F /  -10.1 °C 30.03in /  1016.8hPa NW 6.9mph /  11.1km/h 21mph /  33.8km/h 59% 0.00in /  0mm 0 W/m2
17:09 25.9 °F /  -3.4 °C 13.6 °F /  -10.2 °C 30.03in /  1016.8hPa NW 4.4mph /  7.1km/h 18mph /  29km/h 59% 0.00in /  0mm 0 W/m2
17:14 25.7 °F /  -3.5 °C 13.4 °F /  -10.3 °C 30.03in /  1016.8hPa NW 4.6mph /  7.4km/h 18mph /  29km/h 59.1% 0.00in /  0mm 0 W/m2
17:19 25.4 °F /  -3.7 °C 13.5 °F /  -10.3 °C 30.03in /  1016.8hPa NW 4.9mph /  7.9km/h 18mph /  29km/h 60% 0.00in /  0mm 0 W/m2
17:24 25.1 °F /  -3.8 °C 12.9 °F /  -10.6 °C 30.04in /  1017.2hPa NW 6.1mph /  9.8km/h 18mph /  29km/h 59.2% 0.00in /  0mm 0 W/m2
17:29 24.8 °F /  -4 °C 12.3 °F /  -10.9 °C 30.04in /  1017.2hPa NW 8.7mph /  14km/h 18mph /  29km/h 58.5% 0.00in /  0mm 0 W/m2
17:34 24.4 °F /  -4.2 °C 12.1 °F /  -11.1 °C 30.04in /  1017.2hPa WNW 6.3mph /  10.1km/h 18mph /  29km/h 58.8% 0.00in /  0mm 0 W/m2
17:39 24.2 °F /  -4.3 °C 11.9 °F /  -11.2 °C 30.04in /  1017.2hPa NW 4.2mph /  6.8km/h 15mph /  24.1km/h 59% 0.00in /  0mm 0 W/m2
17:44 23.9 °F /  -4.5 °C 11.8 °F /  -11.2 °C 30.05in /  1017.5hPa NW 5.7mph /  9.2km/h 15mph /  24.1km/h 59.4% 0.00in /  0mm 0 W/m2
17:49 23.7 °F /  -4.6 °C 11.6 °F /  -11.3 °C 30.05in /  1017.5hPa NW 10.8mph /  17.4km/h 20mph /  32.2km/h 59.3% 0.00in /  0mm 0 W/m2
17:54 23.4 °F /  -4.8 °C 11.2 °F /  -11.6 °C 30.05in /  1017.5hPa NW 10mph /  16.1km/h 20mph /  32.2km/h 59% 0.00in /  0mm 0 W/m2
17:59 23.1 °F /  -4.9 °C 10.9 °F /  -11.7 °C 30.05in /  1017.5hPa NW 9.5mph /  15.3km/h 23mph /  37km/h 59% 0.00in /  0mm 0 W/m2
18:04 22.9 °F /  -5.1 °C 10.8 °F /  -11.8 °C 30.06in /  1017.8hPa NW 10.8mph /  17.4km/h 23mph /  37km/h 59% 0.00in /  0mm 0 W/m2
18:09 22.7 °F /  -5.2 °C 10.7 °F /  -11.8 °C 30.06in /  1017.8hPa NW 6mph /  9.7km/h 17mph /  27.4km/h 59.3% 0.00in /  0mm 0 W/m2
18:14 22.5 °F /  -5.3 °C 10.7 °F /  -11.8 °C 30.06in /  1017.8hPa NW 7.2mph /  11.6km/h 17mph /  27.4km/h 60% 0.00in /  0mm 0 W/m2
18:19 22.4 °F /  -5.3 °C 10.6 °F /  -11.9 °C 30.06in /  1017.8hPa NW 5.6mph /  9km/h 17mph /  27.4km/h 60% 0.00in /  0mm 0 W/m2
18:24 22.2 °F /  -5.4 °C 10.7 °F /  -11.8 °C 30.06in /  1017.8hPa NW 4.1mph /  6.6km/h 17mph /  27.4km/h 60.5% 0.00in /  0mm 0 W/m2
18:29 22.1 °F /  -5.5 °C 10.7 °F /  -11.8 °C 30.06in /  1017.8hPa NW 5.7mph /  9.2km/h 17mph /  27.4km/h 61% 0.00in /  0mm 0 W/m2
18:34 22 °F /  -5.6 °C 10.6 °F /  -11.9 °C 30.06in /  1017.8hPa NW 8.2mph /  13.2km/h 17mph /  27.4km/h 61% 0.00in /  0mm 0 W/m2
18:39 21.9 °F /  -5.6 °C 10.5 °F /  -11.9 °C 30.07in /  1018.2hPa WNW 6.7mph /  10.8km/h 14mph /  22.5km/h 61% 0.00in /  0mm 0 W/m2
18:44 21.8 °F /  -5.7 °C 10.4 °F /  -12 °C 30.07in /  1018.2hPa NW 8.5mph /  13.7km/h 25mph /  40.2km/h 61% 0.00in /  0mm 0 W/m2
18:49 21.6 °F /  -5.8 °C 9.9 °F /  -12.3 °C 30.08in /  1018.5hPa NW 11.3mph /  18.2km/h 25mph /  40.2km/h 60% 0.00in /  0mm 0 W/m2
18:54 21.5 °F /  -5.8 °C 9.8 °F /  -12.3 °C 30.08in /  1018.5hPa NW 9.8mph /  15.8km/h 25mph /  40.2km/h 60% 0.00in /  0mm 0 W/m2
18:59 21.3 °F /  -5.9 °C 9.6 °F /  -12.4 °C 30.08in /  1018.5hPa NW 10.1mph /  16.3km/h 25mph /  40.2km/h 60% 0.00in /  0mm 0 W/m2
19:04 21.2 °F /  -6 °C 9.5 °F /  -12.5 °C 30.08in /  1018.5hPa NW 9mph /  14.5km/h 25mph /  40.2km/h 60% 0.00in /  0mm 0 W/m2
19:09 21 °F /  -6.1 °C 9.3 °F /  -12.6 °C 30.08in /  1018.5hPa NW 8mph /  12.9km/h 18mph /  29km/h 60% 0.00in /  0mm 0 W/m2
19:14 20.8 °F /  -6.2 °C 9.1 °F /  -12.7 °C 30.09in /  1018.8hPa NW 8.3mph /  13.4km/h 18mph /  29km/h 60% 0.00in /  0mm 0 W/m2
19:19 20.7 °F /  -6.3 °C 9 °F /  -12.8 °C 30.09in /  1018.8hPa NW 6.2mph /  10km/h 18mph /  29km/h 60% 0.00in /  0mm 0 W/m2
19:24 20.6 °F /  -6.3 °C 9.1 °F /  -12.7 °C 30.09in /  1018.8hPa NW 5.9mph /  9.5km/h 18mph /  29km/h 60.6% 0.00in /  0mm 0 W/m2
19:29 20.4 °F /  -6.4 °C 9.1 °F /  -12.7 °C 30.09in /  1018.8hPa NNW 6mph /  9.7km/h 18mph /  29km/h 61% 0.00in /  0mm 0 W/m2
19:34 20.3 °F /  -6.5 °C 9 °F /  -12.8 °C 30.08in /  1018.5hPa NW 8.6mph /  13.8km/h 20mph /  32.2km/h 61% 0.00in /  0mm 0 W/m2
19:39 20.3 °F /  -6.5 °C 9 °F /  -12.8 °C 30.08in /  1018.5hPa NW 4.9mph /  7.9km/h 20mph /  32.2km/h 61% 0.00in /  0mm 0 W/m2
19:44 20.2 °F /  -6.6 °C 8.9 °F /  -12.8 °C 30.08in /  1018.5hPa NW 6.9mph /  11.1km/h 20mph /  32.2km/h 61% 0.00in /  0mm 0 W/m2
19:49 20 °F /  -6.7 °C 8.8 °F /  -12.9 °C 30.08in /  1018.5hPa NW 6.4mph /  10.3km/h 20mph /  32.2km/h 61% 0.00in /  0mm 0 W/m2
19:54 20 °F /  -6.7 °C 8.7 °F /  -12.9 °C 30.08in /  1018.5hPa NW 9.6mph /  15.4km/h 20mph /  32.2km/h 61% 0.00in /  0mm 0 W/m2
19:59 20 °F /  -6.7 °C 8.4 °F /  -13.1 °C 30.08in /  1018.5hPa NW 8.2mph /  13.2km/h 20mph /  32.2km/h 60.2% 0.00in /  0mm 0 W/m2
20:04 20 °F /  -6.7 °C 8.4 °F /  -13.1 °C 30.08in /  1018.5hPa NW 6mph /  9.7km/h 6mph /  9.7km/h 60% 0.00in /  0mm 0 W/m2
20:09 20 °F /  -6.7 °C 8.6 °F /  -13 °C 30.08in /  1018.5hPa NNW 4.8mph /  7.7km/h 13mph /  20.9km/h 60.7% 0.00in /  0mm 0 W/m2
20:14 19.9 °F /  -6.7 °C 8.6 °F /  -13 °C 30.08in /  1018.5hPa NW 4.9mph /  7.9km/h 13mph /  20.9km/h 61% 0.00in /  0mm 0 W/m2
20:19 19.8 °F /  -6.8 °C 8.5 °F /  -13.1 °C 30.08in /  1018.5hPa NW 5.8mph /  9.3km/h 16mph /  25.7km/h 60.8% 0.00in /  0mm 0 W/m2
20:24 19.8 °F /  -6.8 °C 8.4 °F /  -13.1 °C 30.08in /  1018.5hPa NW 5.5mph /  8.9km/h 16mph /  25.7km/h 60.7% 0.00in /  0mm 0 W/m2
20:29 19.7 °F /  -6.8 °C 8.4 °F /  -13.1 °C 30.08in /  1018.5hPa NW 7.9mph /  12.7km/h 20mph /  32.2km/h 61% 0.00in /  0mm 0 W/m2
20:34 19.7 °F /  -6.8 °C 8.4 °F /  -13.1 °C 30.08in /  1018.5hPa NW 5mph /  8km/h 20mph /  32.2km/h 61% 0.00in /  0mm 0 W/m2
20:39 19.6 °F /  -6.9 °C 8.4 °F /  -13.1 °C 30.08in /  1018.5hPa NW 6.6mph /  10.6km/h 14mph /  22.5km/h 61% 0.00in /  0mm 0 W/m2
20:44 19.6 °F /  -6.9 °C 8.5 °F /  -13.1 °C 30.08in /  1018.5hPa NW 6.6mph /  10.6km/h 18mph /  29km/h 61.5% 0.00in /  0mm 0 W/m2
20:49 19.6 °F /  -6.9 °C 8.7 °F /  -12.9 °C 30.08in /  1018.5hPa NW 10.2mph /  16.4km/h 22mph /  35.4km/h 62% 0.00in /  0mm 0 W/m2
20:54 19.5 °F /  -6.9 °C 8.6 °F /  -13 °C 30.07in /  1018.2hPa NW 7.7mph /  12.4km/h 22mph /  35.4km/h 62% 0.00in /  0mm 0 W/m2
20:59 19.5 °F /  -6.9 °C 8.6 °F /  -13 °C 30.07in /  1018.2hPa NW 4.7mph /  7.6km/h 22mph /  35.4km/h 62% 0.00in /  0mm 0 W/m2
21:04 19.5 °F /  -6.9 °C 8.7 °F /  -12.9 °C 30.07in /  1018.2hPa NW 6.1mph /  9.8km/h 22mph /  35.4km/h 62.3% 0.00in /  0mm 0 W/m2
21:09 19.4 °F /  -7 °C 8.9 °F /  -12.8 °C 30.07in /  1018.2hPa NW 7mph /  11.3km/h 16mph /  25.7km/h 63% 0.00in /  0mm 0 W/m2
21:14 19.4 °F /  -7 °C 8.9 °F /  -12.8 °C 30.06in /  1017.8hPa NW 4.3mph /  6.9km/h 16mph /  25.7km/h 63% 0.00in /  0mm 0 W/m2
21:19 19.4 °F /  -7 °C 8.8 °F /  -12.9 °C 30.06in /  1017.8hPa NW 4.9mph /  7.9km/h 16mph /  25.7km/h 63% 0.00in /  0mm 0 W/m2
21:24 19.3 °F /  -7.1 °C 8.8 °F /  -12.9 °C 30.07in /  1018.2hPa NW 4.4mph /  7.1km/h 16mph /  25.7km/h 63% 0.00in /  0mm 0 W/m2
21:29 19.2 °F /  -7.1 °C 8.8 °F /  -12.9 °C 30.06in /  1017.8hPa NW 1.5mph /  2.4km/h 16mph /  25.7km/h 63.1% 0.00in /  0mm 0 W/m2
21:34 19.1 °F /  -7.2 °C 9 °F /  -12.8 °C 30.07in /  1018.2hPa NW 5.2mph /  8.4km/h 17mph /  27.4km/h 64% 0.00in /  0mm 0 W/m2
21:39 19 °F /  -7.2 °C 8.9 °F /  -12.8 °C 30.06in /  1017.8hPa NW 7.4mph /  11.9km/h 17mph /  27.4km/h 64% 0.00in /  0mm 0 W/m2
21:44 19 °F /  -7.2 °C 8.9 °F /  -12.8 °C 30.06in /  1017.8hPa NNW 6.6mph /  10.6km/h 17mph /  27.4km/h 64% 0.00in /  0mm 0 W/m2
21:49 19 °F /  -7.2 °C 8.8 °F /  -12.9 °C 30.06in /  1017.8hPa NNW 5.2mph /  8.4km/h 17mph /  27.4km/h 64% 0.00in /  0mm 0 W/m2
21:54 19 °F /  -7.2 °C 8.8 °F /  -12.9 °C 30.06in /  1017.8hPa NNW 5.5mph /  8.9km/h 17mph /  27.4km/h 64% 0.00in /  0mm 0 W/m2
21:59 19 °F /  -7.2 °C 8.6 °F /  -13 °C 30.06in /  1017.8hPa NNW 4.1mph /  6.6km/h 17mph /  27.4km/h 63.4% 0.00in /  0mm 0 W/m2
22:04 18.9 °F /  -7.3 °C 8.4 °F /  -13.1 °C 30.06in /  1017.8hPa NW 10.6mph /  17.1km/h 21mph /  33.8km/h 63% 0.00in /  0mm 0 W/m2
22:09 18.9 °F /  -7.3 °C 8.3 °F /  -13.2 °C 30.06in /  1017.8hPa NW 9.7mph /  15.6km/h 21mph /  33.8km/h 62.5% 0.00in /  0mm 0 W/m2
22:14 18.9 °F /  -7.3 °C 8.1 °F /  -13.3 °C 30.06in /  1017.8hPa NNW 6.4mph /  10.3km/h 21mph /  33.8km/h 62% 0.00in /  0mm 0 W/m2
22:19 18.9 °F /  -7.3 °C 8.1 °F /  -13.3 °C 30.06in /  1017.8hPa NW 9.9mph /  15.9km/h 22mph /  35.4km/h 62% 0.00in /  0mm 0 W/m2
22:24 18.8 °F /  -7.3 °C 7.9 °F /  -13.4 °C 30.06in /  1017.8hPa NW 10.5mph /  16.9km/h 22mph /  35.4km/h 61.8% 0.00in /  0mm 0 W/m2
22:29 18.8 °F /  -7.3 °C 7.9 °F /  -13.4 °C 30.06in /  1017.8hPa NNW 8.3mph /  13.4km/h 22mph /  35.4km/h 61.8% 0.00in /  0mm 0 W/m2
22:34 18.7 °F /  -7.4 °C 7.5 °F /  -13.6 °C 30.06in /  1017.8hPa NNW 10.9mph /  17.5km/h 22mph /  35.4km/h 61% 0.00in /  0mm 0 W/m2
22:39 18.6 °F /  -7.4 °C 7.4 °F /  -13.7 °C 30.06in /  1017.8hPa NW 9.5mph /  15.3km/h 26mph /  41.8km/h 61% 0.00in /  0mm 0 W/m2
22:44 18.5 °F /  -7.5 °C 7.3 °F /  -13.7 °C 30.07in /  1018.2hPa NW 11mph /  17.7km/h 26mph /  41.8km/h 60.9% 0.00in /  0mm 0 W/m2
22:49 18.4 °F /  -7.6 °C 6.8 °F /  -14 °C 30.07in /  1018.2hPa NW 10.8mph /  17.4km/h 26mph /  41.8km/h 60% 0.00in /  0mm 0 W/m2
22:54 18.2 °F /  -7.7 °C 6.5 °F /  -14.2 °C 30.07in /  1018.2hPa NW 8.7mph /  14km/h 26mph /  41.8km/h 59.6% 0.00in /  0mm 0 W/m2
22:59 18.1 °F /  -7.7 °C 6.2 °F /  -14.3 °C 30.06in /  1017.8hPa NW 11.1mph /  17.9km/h 26mph /  41.8km/h 59% 0.00in /  0mm 0 W/m2
23:04 17.9 °F /  -7.8 °C 6 °F /  -14.4 °C 30.06in /  1017.8hPa NW 14mph /  22.5km/h 14mph /  22.5km/h 59% 0.00in /  0mm 0 W/m2
23:09 17.8 °F /  -7.9 °C 6 °F /  -14.4 °C 30.06in /  1017.8hPa NNW 9.9mph /  15.9km/h 16mph /  25.7km/h 59.2% 0.00in /  0mm 0 W/m2
23:14 17.7 °F /  -7.9 °C 5.8 °F /  -14.6 °C 30.06in /  1017.8hPa NW 11.2mph /  18km/h 22mph /  35.4km/h 59% 0.00in /  0mm 0 W/m2
23:19 17.6 °F /  -8 °C 5.7 °F /  -14.6 °C 30.06in /  1017.8hPa NW 8.3mph /  13.4km/h 22mph /  35.4km/h 59% 0.00in /  0mm 0 W/m2
23:24 17.5 °F /  -8.1 °C 5.6 °F /  -14.7 °C 30.06in /  1017.8hPa NW 7.3mph /  11.7km/h 22mph /  35.4km/h 59.1% 0.00in /  0mm 0 W/m2
23:29 17.3 °F /  -8.2 °C 5.8 °F /  -14.6 °C 30.06in /  1017.8hPa NNW 7.4mph /  11.9km/h 22mph /  35.4km/h 60% 0.00in /  0mm 0 W/m2
23:34 17.2 °F /  -8.2 °C 5.8 °F /  -14.6 °C 30.06in /  1017.8hPa NW 8.8mph /  14.2km/h 22mph /  35.4km/h 60% 0.00in /  0mm 0 W/m2
23:39 17.1 °F /  -8.3 °C 5.7 °F /  -14.6 °C 30.06in /  1017.8hPa NW 8mph /  12.9km/h 21mph /  33.8km/h 60% 0.00in /  0mm 0 W/m2
23:44 17.1 °F /  -8.3 °C 5.6 °F /  -14.7 °C 30.06in /  1017.8hPa NW 9.9mph /  15.9km/h 24mph /  38.6km/h 60% 0.00in /  0mm 0 W/m2
23:49 17 °F /  -8.3 °C 5.5 °F /  -14.7 °C 30.06in /  1017.8hPa NNW 7.5mph /  12.1km/h 24mph /  38.6km/h 60% 0.00in /  0mm 0 W/m2
23:54 16.9 °F /  -8.4 °C 5.4 °F /  -14.8 °C 30.06in /  1017.8hPa NW 8.7mph /  14km/h 24mph /  38.6km/h 60% 0.00in /  0mm 0 W/m2
23:59 16.9 °F /  -8.4 °C 5.4 °F /  -14.8 °C 30.05in /  1017.5hPa NW 7.8mph /  12.6km/h 24mph /  38.6km/h 60% 0.00in /  0mm 0 W/m2
Hartford County Weather
Compliments of Weather Underground - 2 mb